Sidney, Texas
Current Conditions -  °F | °C
As of 2:55 PM on Friday 21 Nov 2014 (Local Time) from KMKN Reporting Station
Broken Clouds Broken Clouds  
Wind Chill: 74°   Ceiling: 4400
Heat Index: 74°   Visibility: 10mi
Dew Point: 57°   Wind: 7mph
Humidity: 54%   Direction: 170°S
Pressure: 29.99"   Gusts: NA
Location:  31.94°N, 98.74°W
Report Text: KMKN 212055Z AUTO 17006KT 10SM BKN044 24/14 A2999 RMK AO2 T02360137
Loading
Personal Weather Stations






























Interactive Weather Map New forecast layout! Learn more

10-Day Weather Forecast

Advertisements
Track Severe Weather on mobile